createdAt,value
2022-12-11T00:00:52.411Z,17.70
2022-12-11T00:03:19.652Z,14.07
2022-12-11T00:05:46.915Z,15.53
2022-12-11T00:08:15.547Z,16.13
2022-12-11T00:10:49.754Z,17.27
2022-12-11T00:13:16.632Z,16.13
2022-12-11T00:15:43.495Z,11.50
2022-12-11T00:18:14.228Z,16.63
2022-12-11T00:20:41.791Z,7.87
2022-12-11T00:23:09.234Z,16.43
2022-12-11T00:25:41.131Z,16.57
2022-12-11T00:28:08.005Z,16.95
2022-12-11T00:30:34.899Z,15.97
2022-12-11T00:33:02.165Z,15.73
2022-12-11T00:35:29.114Z,16.23
2022-12-11T00:37:56.025Z,15.67
2022-12-11T00:40:23.674Z,14.77
2022-12-11T00:42:50.529Z,18.23
2022-12-11T00:45:17.409Z,25.83
2022-12-11T00:47:44.489Z,19.27
2022-12-11T00:50:12.233Z,17.87
2022-12-11T00:52:40.766Z,15.07
2022-12-11T00:55:07.967Z,16.13
2022-12-11T00:57:35.679Z,15.87
2022-12-11T01:00:06.782Z,14.40
2022-12-11T01:02:34.398Z,21.00
2022-12-11T01:05:01.466Z,19.20
2022-12-11T01:07:28.809Z,14.40
2022-12-11T01:10:14.209Z,15.10
2022-12-11T01:12:41.277Z,14.67
2022-12-11T01:15:08.957Z,13.77
2022-12-11T01:17:36.055Z,15.23
2022-12-11T01:20:04.190Z,13.60
2022-12-11T01:22:31.667Z,11.53
2022-12-11T01:24:59.173Z,14.40
2022-12-11T01:27:26.527Z,12.33
2022-12-11T01:29:53.410Z,11.97
2022-12-11T01:32:20.325Z,13.40
2022-12-11T01:34:47.802Z,9.93
2022-12-11T01:37:15.064Z,7.97
2022-12-11T01:39:42.009Z,9.97
2022-12-11T01:42:19.397Z,9.50
2022-12-11T01:44:46.119Z,9.43
2022-12-11T01:47:13.680Z,9.60
2022-12-11T01:49:41.767Z,8.73
2022-12-11T01:52:19.533Z,8.77
2022-12-11T01:54:48.043Z,8.73
2022-12-11T01:57:16.144Z,8.93
2022-12-11T01:59:46.002Z,7.20
2022-12-11T02:02:21.803Z,8.77
2022-12-11T02:04:49.703Z,8.23
2022-12-11T02:07:17.021Z,8.37
2022-12-11T02:09:46.763Z,8.77
2022-12-11T02:12:34.367Z,8.83
2022-12-11T02:15:35.597Z,7.77
2022-12-11T02:18:40.270Z,8.00
2022-12-11T02:21:20.931Z,7.37
2022-12-11T02:24:12.716Z,7.80
2022-12-11T02:27:29.210Z,8.73
2022-12-11T02:30:01.748Z,7.77
2022-12-11T02:32:53.895Z,6.80
2022-12-11T02:35:31.689Z,7.55
2022-12-11T02:38:08.929Z,7.07
2022-12-11T02:40:39.984Z,6.13
2022-12-11T02:43:10.422Z,6.37
2022-12-11T02:45:40.737Z,6.47
2022-12-11T02:48:09.859Z,5.67
2022-12-11T02:50:42.770Z,6.03
2022-12-11T02:53:12.458Z,6.57
2022-12-11T02:55:42.991Z,7.87
2022-12-11T02:58:30.208Z,8.23
2022-12-11T03:00:57.201Z,6.43
2022-12-11T03:03:24.566Z,6.93
2022-12-11T03:05:51.469Z,6.83
2022-12-11T03:08:18.530Z,6.87
2022-12-11T03:10:46.173Z,7.20
2022-12-11T03:13:16.817Z,6.80
2022-12-11T03:16:30.478Z,7.10
2022-12-11T03:19:35.699Z,6.80
2022-12-11T03:22:17.212Z,7.50
2022-12-11T03:25:13.245Z,6.10
2022-12-11T03:28:07.377Z,6.77
2022-12-11T03:30:37.270Z,7.07
2022-12-11T03:33:11.992Z,6.80
2022-12-11T03:35:48.975Z,6.50
2022-12-11T03:38:37.198Z,8.07
2022-12-11T03:41:07.161Z,7.30
2022-12-11T03:43:35.411Z,7.07
2022-12-11T03:46:02.974Z,7.60
2022-12-11T03:48:34.612Z,7.67
2022-12-11T03:51:05.429Z,6.22
2022-12-11T03:53:35.338Z,8.27
2022-12-11T03:56:04.668Z,7.73
2022-12-11T03:58:31.813Z,8.07
2022-12-11T04:00:58.819Z,8.17
2022-12-11T04:03:26.017Z,7.70
2022-12-11T04:05:55.086Z,7.87
2022-12-11T04:08:23.109Z,7.87
2022-12-11T04:11:11.034Z,8.57
2022-12-11T04:13:39.015Z,7.93
2022-12-11T04:16:06.655Z,7.40
2022-12-11T04:18:59.886Z,7.57
2022-12-11T04:21:45.701Z,8.40
2022-12-11T04:24:15.735Z,7.97
2022-12-11T04:26:47.503Z,7.00
2022-12-11T04:29:15.360Z,7.78
2022-12-11T04:31:42.255Z,7.87
2022-12-11T04:34:09.328Z,7.03
2022-12-11T04:36:36.192Z,8.50
2022-12-11T04:39:05.758Z,9.10
2022-12-11T04:41:34.085Z,9.20
2022-12-11T04:44:01.518Z,9.60
2022-12-11T04:46:28.447Z,9.40
2022-12-11T04:48:57.840Z,9.40
2022-12-11T04:51:25.902Z,10.63
2022-12-11T04:53:53.549Z,9.80
2022-12-11T04:56:21.267Z,9.50
2022-12-11T04:58:48.671Z,11.80
2022-12-11T05:01:21.540Z,9.70
2022-12-11T05:03:49.081Z,10.87
2022-12-11T05:06:16.007Z,10.97
2022-12-11T05:08:43.761Z,10.80
2022-12-11T05:11:13.327Z,11.00
2022-12-11T05:13:40.621Z,11.10
2022-12-11T05:16:10.917Z,10.33
2022-12-11T05:18:38.295Z,12.57
2022-12-11T05:21:11.767Z,12.07
2022-12-11T05:23:39.305Z,10.77
2022-12-11T05:26:11.282Z,10.30
2022-12-11T05:28:39.746Z,11.93
2022-12-11T05:31:12.809Z,12.60
2022-12-11T05:33:39.943Z,11.53
2022-12-11T05:36:08.355Z,13.07
2022-12-11T05:38:35.582Z,12.33
2022-12-11T05:41:06.082Z,11.77
2022-12-11T05:43:35.851Z,12.53
2022-12-11T05:46:13.399Z,12.57
2022-12-11T05:48:41.614Z,12.00
2022-12-11T05:51:09.074Z,14.50
2022-12-11T05:53:37.491Z,14.13
2022-12-11T05:56:08.490Z,12.57
2022-12-11T05:58:35.677Z,12.90
2022-12-11T06:01:06.598Z,11.07
2022-12-11T06:03:33.872Z,14.00
2022-12-11T06:06:05.901Z,13.23
2022-12-11T06:08:33.664Z,11.13
2022-12-11T06:11:00.897Z,13.77
2022-12-11T06:13:28.169Z,11.43
2022-12-11T06:15:55.547Z,12.93
2022-12-11T06:18:22.816Z,12.80
2022-12-11T06:20:49.695Z,12.80
2022-12-11T06:23:16.631Z,11.63
2022-12-11T06:25:43.535Z,11.80
2022-12-11T06:28:11.641Z,10.17
2022-12-11T06:30:39.666Z,12.43
2022-12-11T06:33:07.175Z,11.20
2022-12-11T06:35:41.397Z,11.07
2022-12-11T06:38:10.703Z,12.50
2022-12-11T06:40:38.370Z,11.90
2022-12-11T06:43:05.526Z,12.93
2022-12-11T06:45:32.882Z,12.57
2022-12-11T06:48:00.053Z,12.63
2022-12-11T06:50:27.149Z,12.47
2022-12-11T06:52:55.601Z,11.63
2022-12-11T06:55:23.304Z,12.07
2022-12-11T06:57:50.232Z,11.70
2022-12-11T07:00:17.290Z,12.10
2022-12-11T07:02:44.565Z,12.37
2022-12-11T07:05:11.724Z,12.67
2022-12-11T07:07:39.237Z,14.37
2022-12-11T07:10:08.616Z,13.73
2022-12-11T07:12:36.465Z,13.43
2022-12-11T07:15:05.222Z,13.07
2022-12-11T07:17:32.182Z,12.43
2022-12-11T07:19:59.470Z,12.70
2022-12-11T07:22:26.992Z,14.27
2022-12-11T07:24:54.224Z,13.40
2022-12-11T07:27:21.244Z,11.97
2022-12-11T07:29:48.176Z,12.33
2022-12-11T07:32:15.534Z,13.03
2022-12-11T07:34:47.244Z,13.33
2022-12-11T07:37:17.678Z,11.70
2022-12-11T07:39:44.739Z,12.97
2022-12-11T07:42:11.818Z,12.33
2022-12-11T07:44:38.735Z,12.00
2022-12-11T07:47:06.020Z,13.47
2022-12-11T07:49:33.314Z,12.57
2022-12-11T07:52:00.775Z,12.10
2022-12-11T07:54:28.248Z,13.80
2022-12-11T07:56:55.518Z,13.93
2022-12-11T07:59:22.614Z,11.33
2022-12-11T08:01:49.497Z,13.23
2022-12-11T08:04:16.794Z,10.90
2022-12-11T08:06:44.261Z,11.63
2022-12-11T08:09:20.692Z,13.37
2022-12-11T08:11:52.257Z,11.87
2022-12-11T08:14:19.879Z,12.57
2022-12-11T08:16:47.110Z,12.90
2022-12-11T08:19:15.279Z,12.03
2022-12-11T08:21:42.661Z,13.73
2022-12-11T08:24:10.331Z,13.27
2022-12-11T08:26:37.323Z,13.13
2022-12-11T08:29:04.252Z,11.60
2022-12-11T08:31:33.590Z,11.57
2022-12-11T08:34:00.689Z,12.23
2022-12-11T08:36:28.414Z,13.97
2022-12-11T08:38:56.783Z,13.60
2022-12-11T08:41:30.060Z,14.07
2022-12-11T08:44:00.184Z,14.93
2022-12-11T08:46:30.442Z,11.37
2022-12-11T08:48:58.542Z,12.97
2022-12-11T08:51:27.944Z,11.23
2022-12-11T08:54:00.353Z,12.50
2022-12-11T08:56:29.038Z,11.67
2022-12-11T08:58:56.591Z,11.87
2022-12-11T09:01:27.797Z,11.13
2022-12-11T09:03:56.863Z,11.17
2022-12-11T09:06:26.604Z,11.13
2022-12-11T09:08:54.702Z,12.77
2022-12-11T09:11:25.795Z,12.30
2022-12-11T09:13:53.680Z,11.90
2022-12-11T09:16:24.640Z,10.33
2022-12-11T09:18:53.817Z,10.97
2022-12-11T09:21:24.804Z,12.17
2022-12-11T09:23:58.377Z,12.10
2022-12-11T09:26:26.731Z,16.40
2022-12-11T09:28:54.781Z,12.87
2022-12-11T09:31:26.515Z,13.37
2022-12-11T09:33:56.984Z,13.00
2022-12-11T09:36:24.653Z,14.43
2022-12-11T09:38:52.122Z,10.40
2022-12-11T09:41:35.182Z,15.00
2022-12-11T09:44:06.373Z,13.17
2022-12-11T09:46:35.887Z,10.87
2022-12-11T09:49:05.206Z,12.80
2022-12-11T09:51:46.844Z,12.50
2022-12-11T09:54:15.014Z,12.23
2022-12-11T09:57:00.084Z,11.23
2022-12-11T09:59:40.668Z,8.77
2022-12-11T10:02:43.880Z,8.30
2022-12-11T10:05:37.091Z,11.23
2022-12-11T10:08:29.261Z,11.73
2022-12-11T10:11:19.410Z,13.55
2022-12-11T10:14:06.578Z,11.80
2022-12-11T10:16:45.819Z,9.67
2022-12-11T10:19:22.095Z,11.60
2022-12-11T10:21:51.165Z,11.40
2022-12-11T10:24:59.335Z,12.10
2022-12-11T10:27:19.065Z,10.20
2022-12-11T10:29:48.118Z,10.87
2022-12-11T10:32:30.779Z,10.27
2022-12-11T10:35:05.564Z,12.27
2022-12-11T10:37:32.919Z,12.67
2022-12-11T10:39:59.807Z,12.83
2022-12-11T10:42:27.477Z,13.93
2022-12-11T10:45:04.413Z,13.03
2022-12-11T10:47:33.328Z,12.00
2022-12-11T10:50:03.421Z,13.67
2022-12-11T10:52:44.600Z,12.90
2022-12-11T10:55:44.591Z,11.53
2022-12-11T10:58:20.340Z,14.47
2022-12-11T11:00:49.360Z,12.93
2022-12-11T11:03:26.118Z,12.83
2022-12-11T11:06:23.861Z,13.23
2022-12-11T11:08:57.557Z,11.40
2022-12-11T11:11:38.126Z,12.17
2022-12-11T11:14:17.887Z,12.00
2022-12-11T11:16:50.524Z,12.07
2022-12-11T11:19:30.471Z,13.53
2022-12-11T11:22:05.476Z,12.70
2022-12-11T11:24:52.363Z,12.10
2022-12-11T11:27:27.181Z,9.83
2022-12-11T11:30:02.873Z,11.27
2022-12-11T11:32:43.177Z,11.03
2022-12-11T11:35:25.818Z,10.73
2022-12-11T11:38:09.132Z,11.03
2022-12-11T11:41:07.609Z,12.47
2022-12-11T11:43:51.330Z,12.70
2022-12-11T11:46:27.895Z,12.93
2022-12-11T11:49:06.179Z,14.50
2022-12-11T11:51:53.368Z,12.30
2022-12-11T11:54:34.653Z,11.53
2022-12-11T11:57:35.636Z,13.97
2022-12-11T12:00:15.796Z,12.67
2022-12-11T12:02:43.218Z,13.03
2022-12-11T12:05:13.847Z,11.83
2022-12-11T12:08:07.427Z,11.50
2022-12-11T12:10:40.712Z,14.60
2022-12-11T12:16:52.251Z,11.03
2022-12-11T12:20:03.779Z,11.67
2022-12-11T12:23:01.420Z,13.57
2022-12-11T12:25:52.606Z,13.77
2022-12-11T12:29:07.402Z,11.27
2022-12-11T12:32:13.692Z,12.90
2022-12-11T12:35:04.351Z,11.33
2022-12-11T12:38:05.650Z,13.77
2022-12-11T12:40:59.126Z,13.07
2022-12-11T12:44:14.533Z,13.77
2022-12-11T12:47:07.926Z,11.67
2022-12-11T12:49:41.294Z,11.43
2022-12-11T12:52:17.950Z,12.03
2022-12-11T12:55:09.008Z,12.10
2022-12-11T12:57:38.613Z,11.93
2022-12-11T13:00:13.023Z,10.60
2022-12-11T13:02:50.928Z,11.20
2022-12-11T13:05:32.823Z,10.07
2022-12-11T13:08:04.628Z,10.00
2022-12-11T13:10:35.227Z,13.70
2022-12-11T13:13:04.957Z,10.43
2022-12-11T13:15:36.429Z,10.47
2022-12-11T13:18:31.129Z,12.73
2022-12-11T13:20:58.045Z,10.13
2022-12-11T13:23:35.914Z,11.87
2022-12-11T13:26:04.631Z,12.10
2022-12-11T13:28:40.517Z,12.10
2022-12-11T13:31:37.614Z,10.30
2022-12-11T13:34:20.762Z,12.97
2022-12-11T13:36:53.999Z,12.37
2022-12-11T13:39:27.404Z,13.13
2022-12-11T13:42:02.756Z,11.37
2022-12-11T13:44:38.896Z,10.43
2022-12-11T13:47:12.087Z,12.50
2022-12-11T13:49:42.352Z,12.37
2022-12-11T13:52:19.896Z,12.47
2022-12-11T13:54:53.261Z,14.30
2022-12-11T13:57:28.618Z,13.43
2022-12-11T13:59:58.057Z,11.67
2022-12-11T14:02:38.182Z,11.00
2022-12-11T14:05:17.735Z,9.03
2022-12-11T14:07:58.899Z,10.60
2022-12-11T14:10:27.897Z,10.27
2022-12-11T14:13:31.670Z,10.00
2022-12-11T14:15:58.950Z,10.63
2022-12-11T14:18:30.317Z,10.03
2022-12-11T14:21:04.266Z,10.40
2022-12-11T14:23:36.639Z,10.83
2022-12-11T14:28:38.830Z,9.33
2022-12-11T14:31:06.534Z,7.50
2022-12-11T14:33:42.856Z,14.37
2022-12-11T14:36:10.657Z,11.97
2022-12-11T14:39:07.454Z,11.27
2022-12-11T14:42:00.849Z,8.70
2022-12-11T14:44:32.564Z,11.97
2022-12-11T14:47:04.451Z,10.38
2022-12-11T14:49:46.604Z,6.20
2022-12-11T14:52:41.737Z,9.38
2022-12-11T14:55:29.276Z,9.23
2022-12-11T14:58:01.758Z,10.80
2022-12-11T15:00:35.730Z,12.13
2022-12-11T15:03:17.837Z,10.83
2022-12-11T15:05:55.026Z,9.55
2022-12-11T15:08:26.336Z,11.60
2022-12-11T15:11:06.053Z,11.33
2022-12-11T15:13:35.101Z,9.77
2022-12-11T15:16:03.977Z,8.80
2022-12-11T15:18:35.037Z,13.10
2022-12-11T15:21:07.052Z,10.07
2022-12-11T15:23:53.495Z,11.02
2022-12-11T15:26:32.663Z,9.27
2022-12-11T15:29:01.969Z,9.30
2022-12-11T15:31:32.646Z,10.50
2022-12-11T15:34:02.248Z,10.23
2022-12-11T15:36:35.890Z,11.00
2022-12-11T15:39:08.512Z,11.20
2022-12-11T15:41:35.915Z,10.77
2022-12-11T15:44:04.679Z,10.57
2022-12-11T15:46:36.460Z,10.93
2022-12-11T15:49:12.731Z,11.45
2022-12-11T15:51:43.025Z,8.83
2022-12-11T15:54:10.462Z,9.80
2022-12-11T15:56:37.916Z,8.83
2022-12-11T15:59:06.993Z,8.33
2022-12-11T16:01:35.241Z,9.07
2022-12-11T16:04:05.232Z,8.40
2022-12-11T16:06:33.346Z,8.47
2022-12-11T16:09:01.224Z,9.23
2022-12-11T16:11:28.132Z,9.37
2022-12-11T16:13:55.428Z,8.70
2022-12-11T16:16:23.002Z,10.57
2022-12-11T16:18:51.338Z,10.73
2022-12-11T16:21:21.519Z,9.63
2022-12-11T16:23:48.908Z,8.50
2022-12-11T16:26:15.848Z,9.60
2022-12-11T16:28:43.525Z,9.43
2022-12-11T16:31:12.920Z,9.37
2022-12-11T16:33:40.428Z,9.53
2022-12-11T16:36:19.015Z,9.53
2022-12-11T16:38:53.138Z,10.10
2022-12-11T16:41:21.199Z,9.63
2022-12-11T16:43:48.208Z,9.73
2022-12-11T16:46:20.472Z,9.27
2022-12-11T16:48:48.146Z,8.93
2022-12-11T16:51:15.953Z,9.30
2022-12-11T16:53:42.905Z,7.87
2022-12-11T16:56:10.654Z,8.97
2022-12-11T16:58:37.927Z,9.50
2022-12-11T17:01:14.859Z,9.07
2022-12-11T17:03:43.253Z,8.77
2022-12-11T17:06:14.422Z,8.57
2022-12-11T17:08:42.874Z,8.73
2022-12-11T17:11:17.001Z,9.87
2022-12-11T17:13:44.485Z,7.73
2022-12-11T17:16:15.462Z,9.80
2022-12-11T17:18:43.289Z,9.07
2022-12-11T17:21:16.222Z,9.17
2022-12-11T17:23:44.465Z,10.13
2022-12-11T17:26:11.581Z,9.10
2022-12-11T17:28:39.761Z,9.30
2022-12-11T17:31:17.924Z,10.43
2022-12-11T17:33:46.321Z,9.03
2022-12-11T17:36:16.945Z,9.03
2022-12-11T17:38:44.151Z,10.07
2022-12-11T17:41:19.820Z,9.63
2022-12-11T17:43:49.889Z,10.87
2022-12-11T17:46:17.243Z,10.37
2022-12-11T17:48:44.416Z,10.30
2022-12-11T17:51:14.457Z,15.83
2022-12-11T17:53:41.362Z,17.70
2022-12-11T17:56:08.987Z,15.57
2022-12-11T17:58:36.319Z,9.60
2022-12-11T18:01:09.376Z,9.93
2022-12-11T18:03:37.979Z,9.57
2022-12-11T18:06:10.111Z,11.70
2022-12-11T18:08:37.974Z,12.23
2022-12-11T18:11:07.159Z,10.63
2022-12-11T18:13:34.698Z,9.67
2022-12-11T18:16:24.882Z,9.23
2022-12-11T18:18:52.444Z,10.37
2022-12-11T18:21:27.079Z,27.37
2022-12-11T18:23:54.605Z,13.20
2022-12-11T18:26:23.215Z,15.13
2022-12-11T18:28:51.991Z,14.23
2022-12-11T18:31:20.520Z,14.17
2022-12-11T18:33:48.101Z,17.50
2022-12-11T18:36:17.446Z,20.03
2022-12-11T18:38:44.520Z,13.67
2022-12-11T18:41:13.244Z,13.07
2022-12-11T18:43:41.694Z,11.53
2022-12-11T18:46:12.651Z,8.60
2022-12-11T18:48:40.300Z,10.37
2022-12-11T18:51:13.819Z,10.43
2022-12-11T18:53:41.614Z,10.13
2022-12-11T18:56:16.471Z,10.37
2022-12-11T18:58:46.697Z,12.73
2022-12-11T19:01:29.000Z,14.07
2022-12-11T19:04:04.264Z,14.98
2022-12-11T19:06:35.483Z,13.03
2022-12-11T19:09:05.854Z,12.43
2022-12-11T19:11:34.696Z,12.23
2022-12-11T19:14:01.831Z,11.60
2022-12-11T19:16:36.624Z,13.30
2022-12-11T19:19:13.919Z,11.63
2022-12-11T19:21:42.003Z,12.23
2022-12-11T19:24:14.864Z,13.53
2022-12-11T19:26:42.573Z,11.63
2022-12-11T19:29:10.157Z,11.67
2022-12-11T19:31:37.739Z,11.37
2022-12-11T19:34:04.752Z,9.90
2022-12-11T19:36:33.534Z,12.47
2022-12-11T19:39:03.487Z,11.10
2022-12-11T19:41:32.446Z,10.68
2022-12-11T19:44:00.049Z,12.37
2022-12-11T19:46:28.637Z,11.87
2022-12-11T19:48:57.557Z,10.67
2022-12-11T19:51:33.555Z,12.03
2022-12-11T19:54:04.651Z,9.27
2022-12-11T19:56:33.764Z,12.17
2022-12-11T19:59:09.121Z,12.87
2022-12-11T20:01:38.052Z,11.00
2022-12-11T20:04:10.578Z,10.73
2022-12-11T20:06:41.388Z,11.40
2022-12-11T20:09:11.743Z,11.80
2022-12-11T20:11:43.904Z,10.80
2022-12-11T20:14:27.179Z,11.13
2022-12-11T20:17:13.831Z,12.83
2022-12-11T20:19:42.713Z,11.23
2022-12-11T20:22:10.372Z,10.50
2022-12-11T20:24:37.818Z,11.07
2022-12-11T20:27:05.229Z,10.50
2022-12-11T20:29:33.144Z,11.67
2022-12-11T20:32:00.661Z,11.40
2022-12-11T20:34:30.504Z,10.73
2022-12-11T20:36:57.996Z,11.33
2022-12-11T20:39:28.956Z,11.47
2022-12-11T20:41:56.083Z,10.87
2022-12-11T20:44:23.453Z,10.67
2022-12-11T20:46:50.889Z,12.10
2022-12-11T20:49:18.209Z,10.90
2022-12-11T20:51:45.203Z,11.40
2022-12-11T20:54:12.945Z,11.37
2022-12-11T20:56:40.869Z,10.07
2022-12-11T20:59:13.087Z,11.57
2022-12-11T21:01:40.899Z,10.10
2022-12-11T21:04:08.553Z,11.10
2022-12-11T21:06:38.995Z,10.43
2022-12-11T21:09:14.415Z,11.20
2022-12-11T21:11:41.531Z,13.07
2022-12-11T21:14:08.429Z,11.30
2022-12-11T21:16:36.954Z,13.00
2022-12-11T21:19:05.637Z,11.40
2022-12-11T21:21:36.728Z,11.87
2022-12-11T21:24:05.501Z,11.87
2022-12-11T21:26:33.030Z,10.67
2022-12-11T21:29:00.048Z,8.93
2022-12-11T21:31:27.932Z,11.13
2022-12-11T21:34:00.674Z,11.63
2022-12-11T21:36:27.567Z,10.70
2022-12-11T21:38:54.881Z,11.10
2022-12-11T21:41:26.774Z,9.77
2022-12-11T21:46:43.342Z,9.67
2022-12-11T21:49:10.649Z,11.73
2022-12-11T21:51:45.331Z,12.53
2022-12-11T21:54:16.589Z,12.30
2022-12-11T21:56:46.033Z,12.30
2022-12-11T21:59:13.588Z,12.30
2022-12-11T22:01:46.066Z,10.93
2022-12-11T22:04:14.799Z,12.17
2022-12-11T22:06:46.791Z,10.27
2022-12-11T22:09:15.594Z,10.05
2022-12-11T22:11:45.077Z,11.93
2022-12-11T22:14:14.819Z,12.30
2022-12-11T22:16:42.734Z,13.03
2022-12-11T22:19:10.221Z,13.10
2022-12-11T22:21:37.483Z,11.60
2022-12-11T22:24:07.794Z,12.93
2022-12-11T22:26:37.602Z,13.43
2022-12-11T22:29:04.559Z,11.63
2022-12-11T22:31:32.161Z,8.60
2022-12-11T22:34:00.189Z,8.47
2022-12-11T22:36:27.617Z,11.60
2022-12-11T22:38:55.213Z,11.37
2022-12-11T22:41:31.447Z,11.17
2022-12-11T22:43:59.782Z,11.20
2022-12-11T22:46:30.167Z,11.83
2022-12-11T22:48:58.668Z,12.10
2022-12-11T22:51:26.081Z,11.33
2022-12-11T22:53:53.398Z,11.07
2022-12-11T22:56:20.749Z,12.20
2022-12-11T22:58:48.214Z,10.70
2022-12-11T23:01:21.262Z,9.67
2022-12-11T23:03:48.980Z,8.97
2022-12-11T23:06:18.981Z,10.27
2022-12-11T23:08:46.359Z,10.43
2022-12-11T23:11:19.007Z,9.83
2022-12-11T23:13:45.962Z,12.03
2022-12-11T23:16:13.655Z,11.20
2022-12-11T23:18:40.994Z,10.60
2022-12-11T23:21:08.618Z,9.50
2022-12-11T23:23:35.849Z,9.20
2022-12-11T23:26:04.002Z,10.53
2022-12-11T23:28:31.463Z,9.97
2022-12-11T23:30:58.823Z,11.93
2022-12-11T23:33:26.424Z,10.37
2022-12-11T23:35:53.303Z,10.87
2022-12-11T23:38:20.453Z,12.00
2022-12-11T23:40:47.535Z,9.97
2022-12-11T23:43:14.840Z,10.20
2022-12-11T23:45:45.042Z,10.27
2022-12-11T23:48:13.218Z,10.90
2022-12-11T23:50:41.895Z,10.23
2022-12-11T23:53:09.529Z,9.03
2022-12-11T23:55:40.050Z,9.93
2022-12-11T23:58:07.674Z,10.03
